Tempat Tidur Tersedia Pada Pelayanan Kesehatan

S.No Fasilitas Kesehatan Jenis Kamar Jumlah Kamar Kamar Terpakai Update Terakhir
1 RSUD Dr. M. Ashari
- Merpati Kelas VIP 9 5 2018-09-03 09:26:04
- Rajawali Kelas VIP 14 5 2018-09-03 09:26:18
- Cendrawasih Kelas I 11 5 2018-09-03 09:27:49
- Merak Kelas I 4 1 2018-09-03 09:30:50
- Cucakrowo Kelas I 8 5 2018-09-03 09:31:01
- Kepodang Kelas I 3 2 2018-09-03 09:31:12
- Kasuari Kelas I 4 2 2018-09-03 09:31:21
- Garuda Kelas I 6 3 2018-09-03 09:31:31
- Kasuari Kelas II 10 5 2018-09-03 09:33:04
- Garuda Kelas II 8 6 2018-09-03 09:33:11
- Merak Kelas II 6 4 2018-09-03 09:33:28
- Kepodang Kelas II 8 4 2018-09-03 09:33:56
- Cucakrowo Kelas II 8 4 2018-09-03 09:34:03
- Merak Kelas III 12 5 2018-09-03 09:34:22
- Kepodang Kelas III 9 5 2018-09-03 09:34:56
- Kasuari Kelas III 24 13 2018-09-03 09:35:03
- Garuda Kelas III 22 8 2018-09-03 09:36:45
- Camar Kelas III 40 14 2018-09-03 09:35:22
- Jalak Kelas III 42 24 2018-09-03 09:35:31
- Nuri Kelas III 42 15 2018-09-03 09:38:16
- Kutilang Kelas ICU 9 4 2018-09-03 09:37:04
- IPKR Kelas Bersalin 8 1 2018-09-03 09:38:35
- ODC PONEK One Day Care 2 0 2018-09-03 09:38:54
- Perinatologi Kelas Bayi 38 14 2018-09-03 09:37:12
2 Puskesmas Banyumudal
- Kelas I Standar 0 0 2016-09-23 04:17:26
3 Puskesmas Warungpring
4 Puskesmas Pulosari
5 Puskesmas Belik
6 Puskesmas Kebandaran
- IGD IGD 2 0 2016-10-04 07:35:39
- Ruang VK Ruang VK 2 2 2016-10-04 07:35:49
- BIMA Kelas III 2 1 2016-09-27 08:29:08
- Sembodro Kelas III 2 2 2016-10-04 07:36:36
- Ruang Nifas Ruang Nifas 2 2 2016-10-04 07:36:00
- Sinta Kelas III 9 5 2016-09-29 08:55:25
7 Puskesmas Bantarbolang
8 Puskesmas Randudongkal
9 Puskesmas Kalimas
10 Puskesmas Paduraksa
11 Puskesmas Mulyoharjo
12 Puskesmas Kebondalem
- cendrawasih IGD 2 1 2016-09-23 04:07:17
13 Puskesmas Banjardawa
- igd igd 1 1 2016-09-23 04:06:37
14 Puskesmas Jebed
15 Puskesmas Petarukan
- vk vk 4 4 2016-09-27 08:38:04
- nifas nifas 2 2 2016-09-27 08:38:47
16 Puskesmas Klareyan
- Ruang VK Standar 3 0 2016-09-28 04:55:05
- Ruang Nifas Standar 2 0 2016-09-28 04:56:29
- Rumah Tunggu Standar 3 0 2016-09-28 04:57:23
17 Puskesmas Losari
18 Puskesmas Purwoharjo
- Ruang Dahlia Kelas 3 10 9 2016-09-28 08:30:01
- Ruang Bougenvile Kelas 3 9 6 2016-09-28 08:30:39
- Ruang Soka Kelas 3 9 2 2016-09-28 08:29:39
- Ruang IGD Kelas 3 5 1 2016-09-28 08:51:30
- Ruang VK Kelas 3 4 1 2016-09-26 07:00:16
19 Puskesmas Sarwodadi
20 Puskesmas Rowosari
21 Puskesmas Mojo
22 RSU. Siaga Medika
- Tulip Kelas 3 44 27 2017-11-06 04:28:56
- Anggrek Kelas VIP 12 6 2018-08-18 11:07:04
- Anggrek Kelas 1 13 12 2017-09-12 07:23:07
- Tulip Kelas 2 12 6 2017-09-07 20:58:16
- Lotus Kelas 2 12 3 2017-09-12 07:24:13
- Lotus Kelas 3 48 33 2017-09-12 07:24:36
- Mawar Kelas 2 12 4 2017-09-06 06:55:41
- Mawar Kelas 3 40 29 2017-09-12 07:25:08
- ICU Kelas ICU 12 4 2017-09-12 08:04:58
- Sakura Kelas 2 16 6 2017-09-12 08:05:16
- Sakura Kelas 3 18 15 2017-09-12 08:05:46
- VK Non Kelas 13 10 2017-09-12 08:06:30
- Perina Non Kelas 16 9 2017-09-12 08:07:02
- IGD IGD 20 0 2017-09-12 08:08:57
23 Rs. Santa Maria
- MAWAR INTERNIST 31 26 2018-05-12 12:25:02
- MELATI BEDAH 30 17 2017-08-23 03:27:14
- BOUGENVILE KELAS III 19 15 2017-08-23 03:27:43
- ALAMANDA ANAK ANAK 30 11 2017-08-23 03:27:57
- ICU ICU 4 1 2017-06-19 10:53:35
- ANGGREK EKSEKUTIF & OBGYN 18 14 2017-08-23 03:28:14
- TULIP KAMAR BERSALIN 9 7 2017-07-01 08:43:25
- IGD IGD 5 1 2017-06-12 12:38:02
- OK RUANG OPERASI 4 1 2017-06-12 12:39:06
24 RS Islam PKU Muhammadiyah Moga
- IGD IGD 6 4 2017-10-29 23:30:28
- Marwah Kelas I 10 2 2016-12-06 14:25:35
25 RS Islam Al-Ikhlas
- SOFA VIP 4 4 2017-09-08 07:12:42
- AROFAH Kelas 1 6 4 2017-10-31 07:21:51
- MUSDHALIFAH KELAS 3 23 12 2017-11-04 07:47:15
- MARWAH 1 KELAS 2 3 1 2017-11-04 07:46:20
- MARWAH 2 KELAS 2 3 1 2017-11-04 07:46:28
- FATIMAH KELAS 2 3 3 2017-11-04 07:46:45
- ARRODLOH KELAS 3 8 4 2017-11-04 07:48:09
- VK RUANG VK 3 3 2017-11-04 07:49:17
- RUANG UTAMA RUANG UTAMA 2 2 2017-09-09 07:46:29
- HCU VIP 3 2 2017-09-08 07:15:02
26 RS. PRIMA MEDIKA
- IGD IGD 8 0 2016-09-23 06:46:19
- ICU ICU 3 3 2016-11-22 15:48:46
- ANGGREK (VVIP / VIP) 6 6 2016-09-23 06:54:54
- DAHLIA (KELAS 1) 8 6 2016-09-23 06:55:30
- SERUNI KELAS 2 19 15 2017-11-06 04:29:37
- BOUGENVILLE KELAS 3 28 26 2016-09-23 06:59:29
- SEROJA JAMKESMAS, BPJS PBI 20 19 2016-09-23 07:00:12
27 Puskesmas watukumpul
28 RSM Mardhatillah Randudongkal